sensor_id;sensor_type;location;lat;lon;timestamp;P1;durP1;ratioP1;P2;durP2;ratioP2
27576;SDS011;15011;53.380;10.034;2023-09-18T00:03:18;6.97;;;6.28;;
27576;SDS011;15011;53.380;10.034;2023-09-18T00:08:20;6.72;;;6.13;;
27576;SDS011;15011;53.380;10.034;2023-09-18T00:13:21;7.95;;;6.75;;
27576;SDS011;15011;53.380;10.034;2023-09-18T00:18:22;8.15;;;7.32;;
27576;SDS011;15011;53.380;10.034;2023-09-18T00:23:23;8.00;;;6.88;;
27576;SDS011;15011;53.380;10.034;2023-09-18T00:28:23;7.90;;;6.37;;
27576;SDS011;15011;53.380;10.034;2023-09-18T00:33:24;7.75;;;6.95;;
27576;SDS011;15011;53.380;10.034;2023-09-18T00:38:24;8.03;;;6.93;;
27576;SDS011;15011;53.380;10.034;2023-09-18T00:43:25;8.07;;;6.60;;
27576;SDS011;15011;53.380;10.034;2023-09-18T00:48:25;7.03;;;6.40;;
27576;SDS011;15011;53.380;10.034;2023-09-18T00:53:28;7.63;;;6.82;;
27576;SDS011;15011;53.380;10.034;2023-09-18T00:58:28;7.82;;;6.72;;
27576;SDS011;15011;53.380;10.034;2023-09-18T01:03:29;7.63;;;6.88;;
27576;SDS011;15011;53.380;10.034;2023-09-18T01:08:30;7.28;;;6.55;;
27576;SDS011;15011;53.380;10.034;2023-09-18T01:13:35;8.75;;;6.85;;
27576;SDS011;15011;53.380;10.034;2023-09-18T01:18:37;7.10;;;6.40;;
27576;SDS011;15011;53.380;10.034;2023-09-18T01:23:38;8.20;;;6.80;;
27576;SDS011;15011;53.380;10.034;2023-09-18T01:28:38;7.70;;;6.60;;
27576;SDS011;15011;53.380;10.034;2023-09-18T01:33:39;7.03;;;6.33;;
27576;SDS011;15011;53.380;10.034;2023-09-18T01:38:39;7.53;;;6.25;;
27576;SDS011;15011;53.380;10.034;2023-09-18T01:43:40;8.70;;;7.10;;
27576;SDS011;15011;53.380;10.034;2023-09-18T01:48:45;10.33;;;7.40;;
27576;SDS011;15011;53.380;10.034;2023-09-18T01:53:46;9.00;;;6.75;;
27576;SDS011;15011;53.380;10.034;2023-09-18T01:58:47;7.78;;;7.07;;
27576;SDS011;15011;53.380;10.034;2023-09-18T02:03:47;7.18;;;6.20;;
27576;SDS011;15011;53.380;10.034;2023-09-18T02:08:48;7.90;;;6.57;;
27576;SDS011;15011;53.380;10.034;2023-09-18T02:13:48;9.30;;;7.97;;
27576;SDS011;15011;53.380;10.034;2023-09-18T02:18:49;8.32;;;7.45;;
27576;SDS011;15011;53.380;10.034;2023-09-18T02:23:50;8.05;;;7.25;;
27576;SDS011;15011;53.380;10.034;2023-09-18T02:28:52;8.00;;;7.18;;
27576;SDS011;15011;53.380;10.034;2023-09-18T02:33:53;9.07;;;7.53;;
27576;SDS011;15011;53.380;10.034;2023-09-18T02:38:54;7.47;;;6.63;;
27576;SDS011;15011;53.380;10.034;2023-09-18T02:43:55;9.10;;;7.25;;
27576;SDS011;15011;53.380;10.034;2023-09-18T02:48:55;9.93;;;7.30;;
27576;SDS011;15011;53.380;10.034;2023-09-18T02:53:55;9.43;;;7.27;;
27576;SDS011;15011;53.380;10.034;2023-09-18T02:58:56;10.00;;;8.07;;
27576;SDS011;15011;53.380;10.034;2023-09-18T03:03:56;10.70;;;7.50;;
27576;SDS011;15011;53.380;10.034;2023-09-18T03:08:57;7.83;;;7.03;;
27576;SDS011;15011;53.380;10.034;2023-09-18T03:13:57;7.50;;;6.68;;
27576;SDS011;15011;53.380;10.034;2023-09-18T03:18:58;9.18;;;7.00;;
27576;SDS011;15011;53.380;10.034;2023-09-18T03:23:59;9.52;;;7.63;;
27576;SDS011;15011;53.380;10.034;2023-09-18T03:29:00;8.38;;;7.20;;
27576;SDS011;15011;53.380;10.034;2023-09-18T03:34:00;8.37;;;7.43;;
27576;SDS011;15011;53.380;10.034;2023-09-18T03:39:01;8.48;;;7.55;;
27576;SDS011;15011;53.380;10.034;2023-09-18T03:44:01;9.00;;;8.10;;
27576;SDS011;15011;53.380;10.034;2023-09-18T03:49:02;9.03;;;7.57;;
27576;SDS011;15011;53.380;10.034;2023-09-18T03:54:03;9.18;;;7.93;;
27576;SDS011;15011;53.380;10.034;2023-09-18T03:59:03;8.15;;;7.18;;
27576;SDS011;15011;53.380;10.034;2023-09-18T04:04:04;9.38;;;8.00;;
27576;SDS011;15011;53.380;10.034;2023-09-18T04:09:05;8.15;;;7.15;;
27576;SDS011;15011;53.380;10.034;2023-09-18T04:14:06;11.10;;;9.17;;
27576;SDS011;15011;53.380;10.034;2023-09-18T04:19:06;12.47;;;10.20;;
27576;SDS011;15011;53.380;10.034;2023-09-18T04:24:06;9.47;;;8.40;;
27576;SDS011;15011;53.380;10.034;2023-09-18T04:29:08;8.68;;;7.20;;
27576;SDS011;15011;53.380;10.034;2023-09-18T04:34:08;8.45;;;7.57;;
27576;SDS011;15011;53.380;10.034;2023-09-18T04:39:10;8.52;;;6.60;;
27576;SDS011;15011;53.380;10.034;2023-09-18T04:44:10;9.02;;;7.72;;
27576;SDS011;15011;53.380;10.034;2023-09-18T04:49:13;10.23;;;7.75;;
27576;SDS011;15011;53.380;10.034;2023-09-18T04:54:14;9.05;;;7.45;;
27576;SDS011;15011;53.380;10.034;2023-09-18T04:59:15;10.07;;;8.15;;
27576;SDS011;15011;53.380;10.034;2023-09-18T05:04:16;9.68;;;8.02;;
27576;SDS011;15011;53.380;10.034;2023-09-18T05:09:17;9.60;;;7.75;;
27576;SDS011;15011;53.380;10.034;2023-09-18T05:14:17;12.40;;;9.10;;
27576;SDS011;15011;53.380;10.034;2023-09-18T05:19:18;10.30;;;8.07;;
27576;SDS011;15011;53.380;10.034;2023-09-18T05:24:18;10.53;;;7.87;;
27576;SDS011;15011;53.380;10.034;2023-09-18T05:29:26;8.63;;;7.72;;
27576;SDS011;15011;53.380;10.034;2023-09-18T05:34:27;8.87;;;7.97;;
27576;SDS011;15011;53.380;10.034;2023-09-18T05:39:27;10.27;;;7.80;;
27576;SDS011;15011;53.380;10.034;2023-09-18T05:44:27;9.10;;;8.20;;
27576;SDS011;15011;53.380;10.034;2023-09-18T05:49:28;8.70;;;7.80;;
27576;SDS011;15011;53.380;10.034;2023-09-18T05:54:28;9.25;;;7.85;;
27576;SDS011;15011;53.380;10.034;2023-09-18T05:59:29;8.57;;;7.63;;
27576;SDS011;15011;53.380;10.034;2023-09-18T06:04:29;8.90;;;8.00;;
27576;SDS011;15011;53.380;10.034;2023-09-18T06:09:30;9.05;;;8.07;;
27576;SDS011;15011;53.380;10.034;2023-09-18T06:14:31;10.37;;;7.50;;
27576;SDS011;15011;53.380;10.034;2023-09-18T06:19:34;9.25;;;7.47;;
27576;SDS011;15011;53.380;10.034;2023-09-18T06:24:35;18.25;;;13.55;;
27576;SDS011;15011;53.380;10.034;2023-09-18T06:29:36;7.40;;;6.60;;
27576;SDS011;15011;53.380;10.034;2023-09-18T06:34:38;7.55;;;6.72;;
27576;SDS011;15011;53.380;10.034;2023-09-18T06:39:43;9.38;;;7.10;;
27576;SDS011;15011;53.380;10.034;2023-09-18T06:44:43;8.50;;;7.40;;
27576;SDS011;15011;53.380;10.034;2023-09-18T06:49:43;8.13;;;6.93;;
27576;SDS011;15011;53.380;10.034;2023-09-18T06:54:44;7.57;;;6.77;;
27576;SDS011;15011;53.380;10.034;2023-09-18T06:59:44;7.97;;;7.23;;
27576;SDS011;15011;53.380;10.034;2023-09-18T07:04:45;7.57;;;6.82;;
27576;SDS011;15011;53.380;10.034;2023-09-18T07:09:46;7.28;;;6.25;;
27576;SDS011;15011;53.380;10.034;2023-09-18T07:14:47;7.18;;;6.47;;
27576;SDS011;15011;53.380;10.034;2023-09-18T07:19:48;6.90;;;6.20;;
27576;SDS011;15011;53.380;10.034;2023-09-18T07:24:48;6.90;;;6.20;;
27576;SDS011;15011;53.380;10.034;2023-09-18T07:29:49;8.20;;;6.70;;
27576;SDS011;15011;53.380;10.034;2023-09-18T07:34:49;7.03;;;6.32;;
27576;SDS011;15011;53.380;10.034;2023-09-18T07:39:50;6.63;;;6.03;;
27576;SDS011;15011;53.380;10.034;2023-09-18T07:44:50;8.20;;;6.22;;
27576;SDS011;15011;53.380;10.034;2023-09-18T07:49:51;8.95;;;6.85;;
27576;SDS011;15011;53.380;10.034;2023-09-18T07:54:51;6.47;;;5.88;;
27576;SDS011;15011;53.380;10.034;2023-09-18T07:59:52;6.43;;;5.82;;
27576;SDS011;15011;53.380;10.034;2023-09-18T08:04:53;5.82;;;5.32;;
27576;SDS011;15011;53.380;10.034;2023-09-18T08:09:53;5.50;;;4.97;;
27576;SDS011;15011;53.380;10.034;2023-09-18T08:14:54;6.15;;;5.53;;
27576;SDS011;15011;53.380;10.034;2023-09-18T08:19:57;5.43;;;4.93;;
27576;SDS011;15011;53.380;10.034;2023-09-18T08:24:58;7.40;;;5.97;;
27576;SDS011;15011;53.380;10.034;2023-09-18T08:29:59;6.30;;;5.70;;
27576;SDS011;15011;53.380;10.034;2023-09-18T08:34:59;6.32;;;5.72;;
27576;SDS011;15011;53.380;10.034;2023-09-18T08:40:02;7.03;;;5.82;;
27576;SDS011;15011;53.380;10.034;2023-09-18T08:45:09;6.22;;;5.63;;
27576;SDS011;15011;53.380;10.034;2023-09-18T08:50:10;5.82;;;5.22;;
27576;SDS011;15011;53.380;10.034;2023-09-18T08:55:12;7.15;;;5.57;;
27576;SDS011;15011;53.380;10.034;2023-09-18T09:00:13;5.55;;;5.05;;
27576;SDS011;15011;53.380;10.034;2023-09-18T09:05:17;6.93;;;5.10;;
27576;SDS011;15011;53.380;10.034;2023-09-18T09:10:18;5.90;;;5.18;;
27576;SDS011;15011;53.380;10.034;2023-09-18T09:15:18;6.00;;;5.40;;
27576;SDS011;15011;53.380;10.034;2023-09-18T09:20:19;8.18;;;5.72;;
27576;SDS011;15011;53.380;10.034;2023-09-18T09:30:21;5.63;;;4.77;;
27576;SDS011;15011;53.380;10.034;2023-09-18T09:35:26;7.47;;;5.15;;
27576;SDS011;15011;53.380;10.034;2023-09-18T09:40:30;4.80;;;4.25;;
27576;SDS011;15011;53.380;10.034;2023-09-18T09:45:31;7.70;;;4.47;;
27576;SDS011;15011;53.380;10.034;2023-09-18T09:50:46;5.15;;;4.20;;
27576;SDS011;15011;53.380;10.034;2023-09-18T09:55:53;5.88;;;4.35;;
27576;SDS011;15011;53.380;10.034;2023-09-18T10:00:55;5.30;;;3.97;;
27576;SDS011;15011;53.380;10.034;2023-09-18T10:05:57;5.80;;;4.10;;
27576;SDS011;15011;53.380;10.034;2023-09-18T10:11:01;6.53;;;4.32;;
27576;SDS011;15011;53.380;10.034;2023-09-18T10:16:07;4.72;;;4.15;;
27576;SDS011;15011;53.380;10.034;2023-09-18T10:21:14;6.63;;;4.63;;
27576;SDS011;15011;53.380;10.034;2023-09-18T10:26:19;5.20;;;4.07;;
27576;SDS011;15011;53.380;10.034;2023-09-18T10:31:33;5.47;;;4.28;;
27576;SDS011;15011;53.380;10.034;2023-09-18T10:36:35;6.82;;;4.55;;
27576;SDS011;15011;53.380;10.034;2023-09-18T10:41:36;6.03;;;4.00;;
27576;SDS011;15011;53.380;10.034;2023-09-18T10:46:37;6.07;;;4.07;;
27576;SDS011;15011;53.380;10.034;2023-09-18T10:51:38;5.68;;;3.90;;
27576;SDS011;15011;53.380;10.034;2023-09-18T10:56:42;4.82;;;3.75;;
27576;SDS011;15011;53.380;10.034;2023-09-18T11:01:43;6.93;;;4.13;;
27576;SDS011;15011;53.380;10.034;2023-09-18T11:17:02;5.78;;;3.78;;
27576;SDS011;15011;53.380;10.034;2023-09-18T11:22:07;5.45;;;3.70;;
27576;SDS011;15011;53.380;10.034;2023-09-18T11:27:10;4.90;;;3.53;;
27576;SDS011;15011;53.380;10.034;2023-09-18T11:32:11;4.13;;;3.15;;
27576;SDS011;15011;53.380;10.034;2023-09-18T11:37:21;5.20;;;3.83;;
27576;SDS011;15011;53.380;10.034;2023-09-18T11:42:22;5.07;;;2.65;;
27576;SDS011;15011;53.380;10.034;2023-09-18T11:47:23;5.07;;;3.13;;
27576;SDS011;15011;53.380;10.034;2023-09-18T11:52:25;5.45;;;2.60;;
27576;SDS011;15011;53.380;10.034;2023-09-18T11:57:27;4.43;;;2.45;;
27576;SDS011;15011;53.380;10.034;2023-09-18T12:02:29;4.57;;;2.88;;
27576;SDS011;15011;53.380;10.034;2023-09-18T12:07:38;3.35;;;2.80;;
27576;SDS011;15011;53.380;10.034;2023-09-18T12:12:41;5.85;;;2.90;;
27576;SDS011;15011;53.380;10.034;2023-09-18T12:17:42;4.75;;;2.45;;
27576;SDS011;15011;53.380;10.034;2023-09-18T12:22:46;4.07;;;2.38;;
27576;SDS011;15011;53.380;10.034;2023-09-18T12:27:51;3.17;;;1.98;;
27576;SDS011;15011;53.380;10.034;2023-09-18T12:32:52;3.90;;;2.60;;
27576;SDS011;15011;53.380;10.034;2023-09-18T12:37:53;4.95;;;2.90;;
27576;SDS011;15011;53.380;10.034;2023-09-18T12:42:55;4.20;;;2.47;;
27576;SDS011;15011;53.380;10.034;2023-09-18T12:47:56;3.78;;;2.30;;
27576;SDS011;15011;53.380;10.034;2023-09-18T12:53:10;3.10;;;2.60;;
27576;SDS011;15011;53.380;10.034;2023-09-18T12:58:12;4.18;;;2.05;;
27576;SDS011;15011;53.380;10.034;2023-09-18T13:03:13;4.50;;;2.47;;
27576;SDS011;15011;53.380;10.034;2023-09-18T13:08:14;4.05;;;2.40;;
27576;SDS011;15011;53.380;10.034;2023-09-18T13:13:21;3.17;;;1.70;;
27576;SDS011;15011;53.380;10.034;2023-09-18T13:18:22;5.20;;;2.90;;
27576;SDS011;15011;53.380;10.034;2023-09-18T13:23:30;5.22;;;2.13;;
27576;SDS011;15011;53.380;10.034;2023-09-18T13:28:31;6.13;;;3.03;;
27576;SDS011;15011;53.380;10.034;2023-09-18T13:33:40;2.78;;;2.25;;
27576;SDS011;15011;53.380;10.034;2023-09-18T13:38:41;2.90;;;2.60;;
27576;SDS011;15011;53.380;10.034;2023-09-18T13:43:41;4.65;;;2.80;;
27576;SDS011;15011;53.380;10.034;2023-09-18T13:48:42;5.07;;;2.72;;
27576;SDS011;15011;53.380;10.034;2023-09-18T13:53:43;3.93;;;2.23;;
27576;SDS011;15011;53.380;10.034;2023-09-18T13:58:43;3.90;;;2.28;;
27576;SDS011;15011;53.380;10.034;2023-09-18T14:03:46;3.15;;;2.05;;
27576;SDS011;15011;53.380;10.034;2023-09-18T14:08:46;3.13;;;2.03;;
27576;SDS011;15011;53.380;10.034;2023-09-18T14:13:47;4.50;;;2.38;;
27576;SDS011;15011;53.380;10.034;2023-09-18T14:18:47;4.45;;;2.58;;
27576;SDS011;15011;53.380;10.034;2023-09-18T14:23:48;3.97;;;2.40;;
27576;SDS011;15011;53.380;10.034;2023-09-18T14:28:49;2.97;;;2.40;;
27576;SDS011;15011;53.380;10.034;2023-09-18T14:33:49;3.77;;;2.23;;
27576;SDS011;15011;53.380;10.034;2023-09-18T14:38:49;3.13;;;1.97;;
27576;SDS011;15011;53.380;10.034;2023-09-18T14:43:50;2.90;;;2.10;;
27576;SDS011;15011;53.380;10.034;2023-09-18T14:48:50;2.57;;;2.37;;
27576;SDS011;15011;53.380;10.034;2023-09-18T14:53:51;4.25;;;2.10;;
27576;SDS011;15011;53.380;10.034;2023-09-18T14:58:51;2.33;;;1.83;;
27576;SDS011;15011;53.380;10.034;2023-09-18T15:03:52;2.23;;;1.70;;
27576;SDS011;15011;53.380;10.034;2023-09-18T15:08:52;5.00;;;2.13;;
27576;SDS011;15011;53.380;10.034;2023-09-18T15:13:53;3.55;;;2.08;;
27576;SDS011;15011;53.380;10.034;2023-09-18T15:18:53;2.60;;;2.40;;
27576;SDS011;15011;53.380;10.034;2023-09-18T15:23:54;6.18;;;2.22;;
27576;SDS011;15011;53.380;10.034;2023-09-18T15:28:55;2.92;;;1.83;;
27576;SDS011;15011;53.380;10.034;2023-09-18T15:33:56;5.47;;;2.00;;
27576;SDS011;15011;53.380;10.034;2023-09-18T15:38:56;4.80;;;2.40;;
27576;SDS011;15011;53.380;10.034;2023-09-18T15:43:57;3.58;;;1.90;;
27576;SDS011;15011;53.380;10.034;2023-09-18T15:48:57;2.30;;;2.03;;
27576;SDS011;15011;53.380;10.034;2023-09-18T15:53:58;3.47;;;2.45;;
27576;SDS011;15011;53.380;10.034;2023-09-18T15:58:58;4.95;;;2.40;;
27576;SDS011;15011;53.380;10.034;2023-09-18T16:03:59;2.70;;;2.33;;
27576;SDS011;15011;53.380;10.034;2023-09-18T16:08:59;3.03;;;1.93;;
27576;SDS011;15011;53.380;10.034;2023-09-18T16:14:01;2.83;;;2.35;;
27576;SDS011;15011;53.380;10.034;2023-09-18T16:19:01;3.43;;;2.00;;
27576;SDS011;15011;53.380;10.034;2023-09-18T16:24:02;2.42;;;1.77;;
27576;SDS011;15011;53.380;10.034;2023-09-18T16:29:06;2.78;;;2.20;;
27576;SDS011;15011;53.380;10.034;2023-09-18T16:34:07;3.33;;;2.43;;
27576;SDS011;15011;53.380;10.034;2023-09-18T16:39:07;4.47;;;2.28;;
27576;SDS011;15011;53.380;10.034;2023-09-18T16:44:08;2.37;;;1.40;;
27576;SDS011;15011;53.380;10.034;2023-09-18T16:49:09;5.35;;;1.92;;
27576;SDS011;15011;53.380;10.034;2023-09-18T16:54:12;3.28;;;1.83;;
27576;SDS011;15011;53.380;10.034;2023-09-18T16:59:13;3.85;;;2.00;;
27576;SDS011;15011;53.380;10.034;2023-09-18T17:04:14;2.42;;;2.22;;
27576;SDS011;15011;53.380;10.034;2023-09-18T17:09:15;3.42;;;1.90;;
27576;SDS011;15011;53.380;10.034;2023-09-18T17:14:15;2.10;;;1.92;;
27576;SDS011;15011;53.380;10.034;2023-09-18T17:19:16;3.50;;;1.92;;
27576;SDS011;15011;53.380;10.034;2023-09-18T17:24:18;4.03;;;1.90;;
27576;SDS011;15011;53.380;10.034;2023-09-18T17:29:18;3.00;;;1.88;;
27576;SDS011;15011;53.380;10.034;2023-09-18T17:34:19;2.40;;;1.80;;
27576;SDS011;15011;53.380;10.034;2023-09-18T17:39:19;6.10;;;2.30;;
27576;SDS011;15011;53.380;10.034;2023-09-18T17:44:19;2.43;;;2.00;;
27576;SDS011;15011;53.380;10.034;2023-09-18T17:49:20;3.17;;;1.90;;
27576;SDS011;15011;53.380;10.034;2023-09-18T17:54:22;5.38;;;2.40;;
27576;SDS011;15011;53.380;10.034;2023-09-18T17:59:22;2.97;;;2.00;;
27576;SDS011;15011;53.380;10.034;2023-09-18T18:04:23;4.23;;;2.37;;
27576;SDS011;15011;53.380;10.034;2023-09-18T18:09:23;3.63;;;2.27;;
27576;SDS011;15011;53.380;10.034;2023-09-18T18:14:25;4.77;;;2.00;;
27576;SDS011;15011;53.380;10.034;2023-09-18T18:19:26;3.55;;;1.90;;
27576;SDS011;15011;53.380;10.034;2023-09-18T18:24:27;3.78;;;2.40;;
27576;SDS011;15011;53.380;10.034;2023-09-18T18:29:27;2.70;;;1.98;;
27576;SDS011;15011;53.380;10.034;2023-09-18T18:34:28;2.35;;;2.10;;
27576;SDS011;15011;53.380;10.034;2023-09-18T18:39:29;4.57;;;2.70;;
27576;SDS011;15011;53.380;10.034;2023-09-18T18:44:29;2.40;;;2.10;;
27576;SDS011;15011;53.380;10.034;2023-09-18T18:49:30;2.73;;;2.00;;
27576;SDS011;15011;53.380;10.034;2023-09-18T18:54:32;4.43;;;2.28;;
27576;SDS011;15011;53.380;10.034;2023-09-18T18:59:33;2.10;;;1.67;;
27576;SDS011;15011;53.380;10.034;2023-09-18T19:04:33;3.40;;;1.80;;
27576;SDS011;15011;53.380;10.034;2023-09-18T19:09:34;4.75;;;1.90;;
27576;SDS011;15011;53.380;10.034;2023-09-18T19:14:36;5.40;;;2.10;;
27576;SDS011;15011;53.380;10.034;2023-09-18T19:19:37;2.07;;;1.90;;
27576;SDS011;15011;53.380;10.034;2023-09-18T19:24:37;4.23;;;1.87;;
27576;SDS011;15011;53.380;10.034;2023-09-18T19:29:37;2.78;;;1.63;;
27576;SDS011;15011;53.380;10.034;2023-09-18T19:34:38;2.53;;;2.07;;
27576;SDS011;15011;53.380;10.034;2023-09-18T19:39:38;4.60;;;2.10;;
27576;SDS011;15011;53.380;10.034;2023-09-18T19:44:39;3.57;;;2.20;;
27576;SDS011;15011;53.380;10.034;2023-09-18T19:49:39;3.73;;;1.90;;
27576;SDS011;15011;53.380;10.034;2023-09-18T19:54:40;3.00;;;1.70;;
27576;SDS011;15011;53.380;10.034;2023-09-18T19:59:40;3.22;;;1.88;;
27576;SDS011;15011;53.380;10.034;2023-09-18T20:04:41;1.85;;;1.67;;
27576;SDS011;15011;53.380;10.034;2023-09-18T20:09:41;3.13;;;1.70;;
27576;SDS011;15011;53.380;10.034;2023-09-18T20:14:42;3.10;;;1.65;;
27576;SDS011;15011;53.380;10.034;2023-09-18T20:19:44;4.63;;;1.83;;
27576;SDS011;15011;53.380;10.034;2023-09-18T20:24:46;2.35;;;1.80;;
27576;SDS011;15011;53.380;10.034;2023-09-18T20:29:46;2.70;;;1.00;;
27576;SDS011;15011;53.380;10.034;2023-09-18T20:34:46;1.00;;;0.70;;
27576;SDS011;15011;53.380;10.034;2023-09-18T20:39:47;1.88;;;0.88;;
27576;SDS011;15011;53.380;10.034;2023-09-18T20:44:47;1.57;;;0.90;;
27576;SDS011;15011;53.380;10.034;2023-09-18T20:49:51;1.38;;;1.08;;
27576;SDS011;15011;53.380;10.034;2023-09-18T20:54:52;1.48;;;1.20;;
27576;SDS011;15011;53.380;10.034;2023-09-18T20:59:53;1.53;;;0.87;;
27576;SDS011;15011;53.380;10.034;2023-09-18T21:04:53;2.83;;;1.20;;
27576;SDS011;15011;53.380;10.034;2023-09-18T21:09:54;2.30;;;1.17;;
27576;SDS011;15011;53.380;10.034;2023-09-18T21:14:56;1.20;;;1.10;;
27576;SDS011;15011;53.380;10.034;2023-09-18T21:20:00;1.52;;;1.10;;
27576;SDS011;15011;53.380;10.034;2023-09-18T21:25:01;1.27;;;1.00;;
27576;SDS011;15011;53.380;10.034;2023-09-18T21:30:02;1.92;;;1.00;;
27576;SDS011;15011;53.380;10.034;2023-09-18T21:35:04;3.10;;;1.02;;
27576;SDS011;15011;53.380;10.034;2023-09-18T21:40:04;2.70;;;1.00;;
27576;SDS011;15011;53.380;10.034;2023-09-18T21:45:05;0.68;;;0.68;;
27576;SDS011;15011;53.380;10.034;2023-09-18T21:50:06;1.00;;;0.60;;
27576;SDS011;15011;53.380;10.034;2023-09-18T22:00:08;1.53;;;0.90;;
27576;SDS011;15011;53.380;10.034;2023-09-18T22:05:28;1.80;;;1.10;;
27576;SDS011;15011;53.380;10.034;2023-09-18T22:10:28;1.07;;;0.80;;
27576;SDS011;15011;53.380;10.034;2023-09-18T22:15:29;0.90;;;0.80;;
27576;SDS011;15011;53.380;10.034;2023-09-18T22:30:30;2.50;;;0.93;;
27576;SDS011;15011;53.380;10.034;2023-09-18T22:35:32;2.13;;;0.85;;
27576;SDS011;15011;53.380;10.034;2023-09-18T22:56:50;1.38;;;1.27;;
27576;SDS011;15011;53.380;10.034;2023-09-18T23:06:52;2.00;;;1.40;;
27576;SDS011;15011;53.380;10.034;2023-09-18T23:17:29;3.30;;;1.45;;
27576;SDS011;15011;53.380;10.034;2023-09-18T23:22:24;1.38;;;1.23;;
27576;SDS011;15011;53.380;10.034;2023-09-18T23:27:28;1.58;;;1.17;;
27576;SDS011;15011;53.380;10.034;2023-09-18T23:32:30;3.90;;;1.70;;
27576;SDS011;15011;53.380;10.034;2023-09-18T23:42:34;1.95;;;1.50;;
27576;SDS011;15011;53.380;10.034;2023-09-18T23:47:41;1.67;;;1.42;;
27576;SDS011;15011;53.380;10.034;2023-09-18T23:52:44;2.10;;;1.60;;
27576;SDS011;15011;53.380;10.034;2023-09-18T23:57:51;3.67;;;2.05;;
